Time;durP1;ratioP1;P1;durP2;ratioP2;P2;SDS_P1;SDS_P2;PMS_P1;PMS_P2;Temp;Humidity;BMP_temperature;BMP_pressure;BME280_temperature;BME280_humidity;BME280_pressure;Samples;Min_cycle;Max_cycle;Signal;HPM_P1;HPM_P2
2022/04/29 00:00:05;;;;;;;9.68;3.53;;;9.90;99.90;;;;;;4990442;28;20074;-54
2022/04/29 00:02:32;;;;;;;10.98;3.13;;;9.90;99.90;;;;;;4990235;28;20057;-58
2022/04/29 00:04:59;;;;;;;9.43;3.10;;;9.90;99.90;;;;;;4990067;28;20062;-55
2022/04/29 00:07:26;;;;;;;11.48;3.15;;;9.80;99.90;;;;;;4990607;28;20520;-55
2022/04/29 00:09:53;;;;;;;10.18;2.97;;;9.80;99.90;;;;;;4990112;28;20096;-62
2022/04/29 00:12:20;;;;;;;9.45;3.35;;;9.80;99.90;;;;;;4989704;28;20081;-54
2022/04/29 00:14:47;;;;;;;13.52;3.53;;;9.80;99.90;;;;;;4985736;28;20130;-58
2022/04/29 00:17:13;;;;;;;8.52;4.25;;;9.80;99.90;;;;;;4982229;28;20145;-55
2022/04/29 00:19:40;;;;;;;10.60;3.28;;;9.80;99.90;;;;;;4990007;28;20125;-57
2022/04/29 00:22:07;;;;;;;13.57;3.40;;;9.80;99.90;;;;;;4990274;28;20050;-57
2022/04/29 00:24:34;;;;;;;11.63;4.32;;;9.80;99.90;;;;;;4989603;28;20042;-56
2022/04/29 00:27:01;;;;;;;8.40;3.22;;;9.80;99.90;;;;;;4989803;28;20141;-57
2022/04/29 00:29:28;;;;;;;8.55;3.30;;;9.70;99.90;;;;;;4989837;28;20133;-57
2022/04/29 00:31:54;;;;;;;10.68;3.10;;;9.70;99.90;;;;;;4990198;28;20089;-55
2022/04/29 00:34:21;;;;;;;9.27;3.03;;;9.70;99.90;;;;;;4988466;28;20038;-55
2022/04/29 00:36:48;;;;;;;13.63;3.60;;;9.70;99.90;;;;;;4989026;28;20174;-54
2022/04/29 00:39:15;;;;;;;12.63;3.22;;;9.70;99.90;;;;;;4970583;28;20053;-57
2022/04/29 00:41:44;;;;;;;7.97;2.85;;;9.70;99.90;;;;;;4987710;28;20149;-58
2022/04/29 00:44:11;;;;;;;10.32;4.22;;;9.70;99.90;;;;;;4989850;28;20057;-55
2022/04/29 00:46:40;;;;;;;12.88;3.97;;;9.70;99.90;;;;;;4989526;28;20058;-54
2022/04/29 00:49:11;;;;;;;10.77;4.35;;;9.70;99.90;;;;;;4989712;28;20129;-56
2022/04/29 00:51:38;;;;;;;11.35;3.75;;;9.70;99.90;;;;;;4989040;28;20050;-54
2022/04/29 00:54:07;;;;;;;7.30;3.28;;;9.60;99.90;;;;;;4985939;28;20456;-59
2022/04/29 00:56:36;;;;;;;12.70;4.13;;;9.60;99.90;;;;;;4982683;28;20130;-57
2022/04/29 00:59:06;;;;;;;12.07;3.60;;;9.60;99.90;;;;;;4987005;28;20061;-58
2022/04/29 01:01:34;;;;;;;11.93;4.20;;;9.50;99.90;;;;;;5002828;28;20049;-57
2022/04/29 01:04:02;;;;;;;12.93;4.90;;;9.60;99.90;;;;;;5003570;28;20081;-55
2022/04/29 01:06:28;;;;;;;11.30;4.22;;;9.50;99.90;;;;;;4987698;28;20088;-57
2022/04/29 01:08:55;;;;;;;8.88;3.90;;;9.50;99.90;;;;;;4988433;28;20047;-55
2022/04/29 01:11:24;;;;;;;10.32;3.88;;;9.50;99.90;;;;;;4988890;28;20138;-56
2022/04/29 01:13:52;;;;;;;11.60;3.33;;;9.50;99.90;;;;;;4989022;28;20074;-60
2022/04/29 01:16:19;;;;;;;7.65;3.35;;;9.50;99.90;;;;;;4976608;28;20662;-56
2022/04/29 01:18:47;;;;;;;13.75;4.43;;;9.50;99.90;;;;;;4988830;28;20070;-57
2022/04/29 01:21:14;;;;;;;18.27;5.70;;;9.50;99.90;;;;;;4988885;28;20094;-57
2022/04/29 01:23:43;;;;;;;9.38;3.92;;;9.40;99.90;;;;;;4988078;28;20621;-56
2022/04/29 01:26:15;;;;;;;15.85;3.97;;;9.40;99.90;;;;;;4988921;28;20086;-57
2022/04/29 01:28:47;;;;;;;9.25;3.53;;;9.40;99.90;;;;;;4985144;28;20069;-56
2022/04/29 01:31:15;;;;;;;10.30;4.00;;;9.40;99.90;;;;;;4987472;28;20137;-56
2022/04/29 01:33:42;;;;;;;10.63;4.68;;;9.40;99.90;;;;;;4988684;28;20104;-56
2022/04/29 01:36:09;;;;;;;17.45;4.07;;;9.40;99.90;;;;;;5003447;28;20094;-56
2022/04/29 01:38:37;;;;;;;11.48;4.00;;;9.40;99.90;;;;;;4988003;28;20082;-55
2022/04/29 01:41:05;;;;;;;12.80;3.80;;;9.30;99.90;;;;;;4988324;28;20046;-57
2022/04/29 01:43:32;;;;;;;11.85;4.65;;;9.30;99.90;;;;;;4987886;28;20100;-57
2022/04/29 01:45:59;;;;;;;10.95;3.63;;;9.30;99.90;;;;;;4986389;28;20089;-56
2022/04/29 01:48:26;;;;;;;13.68;3.03;;;9.30;99.90;;;;;;4982627;28;20105;-56
2022/04/29 01:50:53;;;;;;;11.55;3.88;;;9.20;99.90;;;;;;4983882;28;20046;-56
2022/04/29 01:53:20;;;;;;;14.63;3.53;;;9.20;99.90;;;;;;4980203;28;20050;-56
2022/04/29 01:55:47;;;;;;;11.27;4.05;;;9.20;99.90;;;;;;4987086;28;20050;-57
2022/04/29 01:58:13;;;;;;;12.82;4.38;;;9.10;99.90;;;;;;5002945;28;20133;-57
2022/04/29 02:00:40;;;;;;;12.07;3.88;;;9.10;99.90;;;;;;4988270;28;20081;-58
2022/04/29 02:03:07;;;;;;;8.57;3.60;;;9.10;99.90;;;;;;4987993;28;20055;-58
2022/04/29 02:05:34;;;;;;;11.15;3.75;;;9.10;99.90;;;;;;4988317;28;20050;-56
2022/04/29 02:08:01;;;;;;;15.63;4.38;;;9.10;99.90;;;;;;4988240;28;20124;-57
2022/04/29 02:10:28;;;;;;;9.95;3.72;;;9.00;99.90;;;;;;4988152;28;20081;-55
2022/04/29 02:12:54;;;;;;;9.95;4.43;;;9.00;99.90;;;;;;4987654;28;20109;-57
2022/04/29 02:15:21;;;;;;;12.10;4.43;;;8.90;99.90;;;;;;4982685;28;20597;-56
2022/04/29 02:17:48;;;;;;;16.10;4.97;;;8.90;99.90;;;;;;4987961;28;20598;-55
2022/04/29 02:20:15;;;;;;;9.30;3.53;;;8.80;99.90;;;;;;4986639;28;20605;-55
2022/04/29 02:22:41;;;;;;;12.65;4.20;;;8.80;99.90;;;;;;4968653;28;20082;-55
2022/04/29 02:25:08;;;;;;;11.70;4.45;;;8.80;99.90;;;;;;4985909;28;20150;-56
2022/04/29 02:27:37;;;;;;;8.70;3.50;;;8.80;99.90;;;;;;4987181;28;20513;-54
2022/04/29 02:30:04;;;;;;;8.27;3.28;;;8.70;99.90;;;;;;4986439;28;20090;-55
2022/04/29 02:32:31;;;;;;;12.48;4.60;;;8.70;99.90;;;;;;4988515;28;20050;-59
2022/04/29 02:35:00;;;;;;;9.77;3.88;;;8.70;99.90;;;;;;4990434;28;20309;-57
2022/04/29 02:37:27;;;;;;;22.05;5.53;;;8.60;99.90;;;;;;4991619;28;20089;-58
2022/04/29 02:39:54;;;;;;;12.55;4.45;;;8.60;99.90;;;;;;4991494;28;20047;-57
2022/04/29 02:42:21;;;;;;;14.15;5.10;;;8.60;99.90;;;;;;4990132;28;20532;-57
2022/04/29 02:44:48;;;;;;;12.15;5.85;;;8.60;99.90;;;;;;4990879;28;20085;-57
2022/04/29 02:47:14;;;;;;;16.95;4.53;;;8.60;99.90;;;;;;4991375;28;20085;-55
2022/04/29 02:49:42;;;;;;;15.88;4.57;;;8.50;99.90;;;;;;4991071;28;20073;-56
2022/04/29 02:52:11;;;;;;;10.82;4.70;;;8.50;99.90;;;;;;5005661;28;20137;-57
2022/04/29 02:54:38;;;;;;;10.35;4.47;;;8.40;99.90;;;;;;4990620;28;20108;-54
2022/04/29 02:57:05;;;;;;;18.40;5.13;;;8.50;99.90;;;;;;4980587;28;20085;-52
2022/04/29 02:59:32;;;;;;;9.00;4.55;;;8.40;99.90;;;;;;4990758;28;20085;-56
2022/04/29 03:01:59;;;;;;;12.68;4.43;;;8.40;99.90;;;;;;4990836;28;20062;-60
2022/04/29 03:04:26;;;;;;;9.73;4.90;;;8.40;99.90;;;;;;4990466;28;20051;-55
2022/04/29 03:06:53;;;;;;;19.60;4.30;;;8.30;99.90;;;;;;4990305;28;20497;-59
2022/04/29 03:09:20;;;;;;;10.45;4.95;;;8.30;99.90;;;;;;4991052;28;20051;-54
2022/04/29 03:11:48;;;;;;;11.00;5.13;;;8.30;99.90;;;;;;4990673;28;20047;-55
2022/04/29 03:14:15;;;;;;;12.40;5.00;;;8.20;99.90;;;;;;4986572;28;20121;-53
2022/04/29 03:16:48;;;;;;;15.48;4.85;;;8.20;99.90;;;;;;4988708;28;20652;-54
2022/04/29 03:19:15;;;;;;;13.10;5.20;;;8.10;99.90;;;;;;4991011;28;20141;-55
2022/04/29 03:21:42;;;;;;;23.33;5.15;;;8.10;99.90;;;;;;4989388;28;20133;-56
2022/04/29 03:24:09;;;;;;;12.60;5.53;;;8.10;99.90;;;;;;4991192;28;20105;-54
2022/04/29 03:26:36;;;;;;;15.88;4.75;;;8.10;99.90;;;;;;4990646;28;20082;-51
2022/04/29 03:29:02;;;;;;;13.68;4.65;;;8.10;99.90;;;;;;4991008;28;20085;-56
2022/04/29 03:31:29;;;;;;;16.33;5.00;;;8.00;99.90;;;;;;4988149;28;20054;-53
2022/04/29 03:33:56;;;;;;;17.73;4.25;;;8.00;99.90;;;;;;4989305;28;20512;-55
2022/04/29 03:36:23;;;;;;;11.20;5.45;;;8.00;99.90;;;;;;4989831;28;20133;-54
2022/04/29 03:38:50;;;;;;;17.13;5.57;;;8.00;99.90;;;;;;4990021;28;20105;-56
2022/04/29 03:41:17;;;;;;;14.27;4.60;;;7.90;99.90;;;;;;4989889;28;20137;-54
2022/04/29 03:43:44;;;;;;;18.60;4.88;;;7.90;99.90;;;;;;4989390;28;20074;-55
2022/04/29 03:46:10;;;;;;;11.63;4.03;;;7.90;99.90;;;;;;4989103;28;20058;-55
2022/04/29 03:51:22;;;;;;;10.98;5.10;;;7.80;99.90;;;;;;4989930;28;20133;-57
2022/04/29 03:53:49;;;;;;;13.68;5.03;;;7.80;99.90;;;;;;4989843;28;20081;-52
2022/04/29 03:56:17;;;;;;;11.65;5.55;;;7.70;99.90;;;;;;4989533;28;20129;-56
2022/04/29 03:58:43;;;;;;;24.90;6.82;;;7.60;99.90;;;;;;4989673;28;20062;-58
2022/04/29 04:01:11;;;;;;;15.52;6.28;;;7.60;99.90;;;;;;4989366;28;20081;-57
2022/04/29 04:03:40;;;;;;;15.20;5.90;;;7.50;99.90;;;;;;4988265;28;20101;-57
2022/04/29 04:08:52;;;;;;;20.75;6.10;;;7.50;99.90;;;;;;4988424;28;20133;-57
2022/04/29 04:11:19;;;;;;;15.63;5.13;;;7.50;99.90;;;;;;4989724;28;20100;-57
2022/04/29 04:13:46;;;;;;;17.80;5.18;;;7.60;99.90;;;;;;4987418;28;20078;-55
2022/04/29 04:16:13;;;;;;;9.43;5.13;;;7.60;99.90;;;;;;4970860;28;20051;-55
2022/04/29 04:18:39;;;;;;;9.60;5.15;;;7.60;99.90;;;;;;4985652;28;20084;-57
2022/04/29 04:21:06;;;;;;;12.05;5.13;;;7.50;99.90;;;;;;4990033;28;20093;-57
2022/04/29 04:23:33;;;;;;;10.32;5.00;;;7.50;99.90;;;;;;4989470;28;20054;-52
2022/04/29 04:26:00;;;;;;;16.70;5.32;;;7.50;99.90;;;;;;4989215;28;20043;-56
2022/04/29 04:28:27;;;;;;;13.80;5.80;;;7.50;99.90;;;;;;4989057;28;20468;-55
2022/04/29 04:30:54;;;;;;;19.25;5.65;;;7.50;99.90;;;;;;4989710;28;20100;-56
2022/04/29 04:33:20;;;;;;;14.50;5.25;;;7.50;99.90;;;;;;4989142;28;20336;-55
2022/04/29 04:35:47;;;;;;;10.18;5.00;;;7.50;99.90;;;;;;4989360;28;20141;-57
2022/04/29 04:38:14;;;;;;;8.30;4.60;;;7.50;99.90;;;;;;4988571;28;20052;-57
2022/04/29 04:40:42;;;;;;;9.00;5.68;;;7.50;99.90;;;;;;4988261;28;20046;-57
2022/04/29 04:43:16;;;;;;;15.95;7.20;;;7.50;99.90;;;;;;4988423;28;20038;-56
2022/04/29 04:45:43;;;;;;;16.45;6.80;;;7.40;99.90;;;;;;4978254;28;20042;-54
2022/04/29 04:48:10;;;;;;;14.82;5.53;;;7.40;99.90;;;;;;4988469;28;20054;-57
2022/04/29 04:50:37;;;;;;;16.13;5.97;;;7.40;99.90;;;;;;4988804;28;20501;-55
2022/04/29 04:53:04;;;;;;;18.25;5.40;;;7.40;99.90;;;;;;4989286;28;20050;-54
2022/04/29 04:55:31;;;;;;;20.73;7.72;;;7.40;99.90;;;;;;4989159;28;20042;-55
2022/04/29 04:57:58;;;;;;;16.05;7.20;;;7.30;99.90;;;;;;4988969;28;20509;-55
2022/04/29 05:00:24;;;;;;;12.38;6.32;;;7.40;99.90;;;;;;4988799;28;20070;-55
2022/04/29 05:02:51;;;;;;;12.80;5.68;;;7.30;99.90;;;;;;4988667;28;20607;-57
2022/04/29 05:05:18;;;;;;;12.00;4.65;;;7.40;99.90;;;;;;4988526;28;20061;-51
2022/04/29 05:07:45;;;;;;;21.88;6.15;;;7.40;99.90;;;;;;4988158;28;20141;-53
2022/04/29 05:10:12;;;;;;;17.65;6.80;;;7.40;99.90;;;;;;5003090;28;20513;-52
2022/04/29 05:12:40;;;;;;;19.35;5.57;;;7.40;99.90;;;;;;4988966;28;20116;-55
2022/04/29 05:15:07;;;;;;;12.25;5.20;;;7.40;99.90;;;;;;4987973;28;20078;-56
2022/04/29 05:17:34;;;;;;;11.45;5.75;;;7.40;99.90;;;;;;4988604;28;20133;-56
2022/04/29 05:20:02;;;;;;;15.48;5.18;;;7.40;99.90;;;;;;4988187;28;20069;-56
2022/04/29 05:22:29;;;;;;;15.30;5.53;;;7.50;99.90;;;;;;4988559;28;20085;-55
2022/04/29 05:24:56;;;;;;;11.23;5.70;;;7.50;99.90;;;;;;4988725;28;20050;-58
2022/04/29 05:27:23;;;;;;;10.48;5.80;;;7.60;99.90;;;;;;4988727;28;20089;-54
2022/04/29 05:29:50;;;;;;;13.00;5.03;;;7.60;99.90;;;;;;4988460;28;20128;-55
2022/04/29 05:32:17;;;;;;;16.60;5.63;;;7.70;99.90;;;;;;4987957;28;20118;-57
2022/04/29 05:34:44;;;;;;;8.57;5.38;;;7.70;99.90;;;;;;4985178;28;20054;-56
2022/04/29 05:37:11;;;;;;;22.50;5.68;;;7.70;99.90;;;;;;4981022;28;20525;-58
2022/04/29 05:42:23;;;;;;;14.80;4.45;;;7.80;99.90;;;;;;4980388;28;20175;-55
2022/04/29 05:44:52;;;;;;;16.15;4.70;;;7.70;99.90;;;;;;4981897;28;20069;-54
2022/04/29 05:47:19;;;;;;;11.27;3.70;;;7.80;99.90;;;;;;4983537;28;20086;-54
2022/04/29 05:49:46;;;;;;;7.68;3.90;;;7.80;99.90;;;;;;4982554;28;20047;-53
2022/04/29 05:52:13;;;;;;;10.73;4.82;;;7.80;99.90;;;;;;4983715;28;20054;-57
2022/04/29 05:54:40;;;;;;;8.77;4.03;;;7.80;99.90;;;;;;4978673;28;20133;-57
2022/04/29 05:57:10;;;;;;;15.57;4.82;;;7.90;99.90;;;;;;4979429;28;20042;-56
2022/04/29 05:59:37;;;;;;;14.95;5.47;;;7.90;99.90;;;;;;4988022;28;20137;-57
2022/04/29 06:02:04;;;;;;;12.50;3.63;;;7.80;99.90;;;;;;4967543;28;20141;-58
2022/04/29 06:04:31;;;;;;;10.50;4.75;;;7.80;99.90;;;;;;4987574;28;20081;-56
2022/04/29 06:06:58;;;;;;;9.02;3.38;;;7.70;99.90;;;;;;4987165;28;20516;-54
2022/04/29 06:09:25;;;;;;;7.28;3.50;;;7.80;99.90;;;;;;4989025;28;20458;-56
2022/04/29 06:11:52;;;;;;;6.82;3.03;;;7.70;99.90;;;;;;4988750;28;20050;-57
2022/04/29 06:14:26;;;;;;;8.15;3.28;;;7.80;99.90;;;;;;4991204;28;20486;-57
2022/04/29 06:16:53;;;;;;;9.57;3.38;;;7.80;99.90;;;;;;4991508;28;20177;-58
2022/04/29 06:19:20;;;;;;;9.70;3.72;;;7.80;99.90;;;;;;4992300;28;20054;-58
2022/04/29 06:21:46;;;;;;;10.40;3.25;;;7.80;99.90;;;;;;4991188;28;20047;-56
2022/04/29 06:24:13;;;;;;;10.02;3.97;;;7.80;99.90;;;;;;4990401;28;20646;-60
2022/04/29 06:26:40;;;;;;;11.80;3.53;;;7.90;99.90;;;;;;4987613;28;20624;-57
2022/04/29 06:29:07;;;;;;;9.65;3.08;;;7.90;99.90;;;;;;4990719;28;20070;-58
2022/04/29 06:31:34;;;;;;;10.80;3.58;;;7.90;99.90;;;;;;4991137;28;20054;-58
2022/04/29 06:34:00;;;;;;;8.98;2.92;;;8.10;99.90;;;;;;4991431;28;20054;-59
2022/04/29 06:36:27;;;;;;;12.13;3.63;;;8.00;99.90;;;;;;4991298;28;20046;-57
2022/04/29 06:38:54;;;;;;;10.20;2.90;;;8.10;99.90;;;;;;4990463;28;20082;-58
2022/04/29 06:41:21;;;;;;;7.32;2.80;;;8.20;99.90;;;;;;4988035;28;20129;-60
2022/04/29 06:43:48;;;;;;;6.32;3.10;;;8.20;99.90;;;;;;4985994;28;20089;-58
2022/04/29 06:46:17;;;;;;;8.30;3.38;;;8.30;99.90;;;;;;4974007;28;20129;-57
2022/04/29 06:48:45;;;;;;;7.78;3.17;;;8.30;99.90;;;;;;4994883;28;20058;-57
2022/04/29 06:51:12;;;;;;;10.48;2.70;;;8.40;99.90;;;;;;4977812;28;20047;-57
2022/04/29 06:53:41;;;;;;;6.60;3.20;;;8.40;99.90;;;;;;4979918;28;20155;-59
2022/04/29 06:56:09;;;;;;;4.22;2.40;;;8.50;99.90;;;;;;4979742;28;20050;-59
2022/04/29 06:58:36;;;;;;;8.10;2.50;;;8.50;99.90;;;;;;4982740;28;20263;-58
2022/04/29 07:01:03;;;;;;;11.30;3.25;;;8.60;99.90;;;;;;4983427;28;20133;-58
2022/04/29 07:03:29;;;;;;;14.75;3.10;;;8.70;99.90;;;;;;4981842;28;20057;-58
2022/04/29 07:05:59;;;;;;;7.38;2.33;;;8.80;99.90;;;;;;4984073;28;20051;-60
2022/04/29 07:08:26;;;;;;;7.18;2.22;;;8.80;99.90;;;;;;4982521;28;20050;-59
2022/04/29 07:10:52;;;;;;;6.90;3.05;;;8.80;99.90;;;;;;4984740;28;20057;-57
2022/04/29 07:13:19;;;;;;;3.78;2.20;;;8.90;99.90;;;;;;4993425;28;20050;-59
2022/04/29 07:15:48;;;;;;;6.53;2.40;;;9.00;99.90;;;;;;4983586;28;20230;-60
2022/04/29 07:18:16;;;;;;;13.18;3.20;;;9.10;99.90;;;;;;4980765;28;20215;-57
2022/04/29 07:20:43;;;;;;;7.95;2.42;;;9.20;99.90;;;;;;4981670;28;20068;-58
2022/04/29 07:23:10;;;;;;;6.85;2.30;;;9.30;99.90;;;;;;4981517;28;20478;-60
2022/04/29 07:25:37;;;;;;;4.10;1.35;;;9.30;99.90;;;;;;4983613;28;20129;-58
2022/04/29 07:28:04;;;;;;;7.38;2.13;;;9.30;99.90;;;;;;4980347;28;20050;-59
2022/04/29 07:30:31;;;;;;;3.72;1.52;;;9.30;99.90;;;;;;4982246;28;20081;-57
2022/04/29 07:32:58;;;;;;;3.60;1.67;;;9.30;99.90;;;;;;4980960;28;20062;-58
2022/04/29 07:43:41;;;;;;;8.60;2.33;;;9.50;99.90;;;;;;4989074;28;20073;-56
2022/04/29 07:46:10;;;;;;;7.63;2.38;;;9.70;99.90;;;;;;5003531;28;20078;-56
2022/04/29 07:48:38;;;;;;;6.72;1.95;;;9.70;99.90;;;;;;4989950;28;20097;-58
2022/04/29 07:51:05;;;;;;;6.93;1.73;;;9.80;99.90;;;;;;4989582;28;20568;-58
2022/04/29 07:53:32;;;;;;;7.75;1.92;;;9.90;99.90;;;;;;4989547;28;20482;-56
2022/04/29 07:55:59;;;;;;;3.70;1.85;;;10.00;99.10;;;;;;4987873;28;20141;-58
2022/04/29 07:58:25;;;;;;;7.70;2.00;;;10.10;99.60;;;;;;4968615;28;20090;-58
2022/04/29 08:00:53;;;;;;;5.05;2.03;;;10.10;99.70;;;;;;4981216;28;20046;-60
2022/04/29 08:03:36;;;;;;;4.75;1.50;;;10.10;99.30;;;;;;4968764;28;20051;-62
2022/04/29 08:06:05;;;;;;;4.13;1.35;;;10.10;98.60;;;;;;4987311;28;20540;-57
2022/04/29 08:08:32;;;;;;;4.45;1.63;;;10.10;98.40;;;;;;4987219;28;20085;-58
2022/04/29 08:10:59;;;;;;;13.35;1.77;;;10.20;98.70;;;;;;4988642;28;20077;-58
2022/04/29 08:13:27;;;;;;;4.55;1.80;;;10.20;98.70;;;;;;4989276;28;20152;-59
2022/04/29 08:15:54;;;;;;;6.35;2.30;;;10.20;97.20;;;;;;4989474;28;20142;-58
2022/04/29 08:18:21;;;;;;;9.63;2.10;;;10.20;98.40;;;;;;4989588;28;20050;-56
2022/04/29 08:20:48;;;;;;;8.68;2.65;;;10.30;98.70;;;;;;4989267;28;20673;-57
2022/04/29 08:23:15;;;;;;;8.35;1.90;;;10.30;98.10;;;;;;4989310;28;20137;-57
2022/04/29 08:25:41;;;;;;;5.10;1.73;;;10.40;98.30;;;;;;4988812;28;20608;-58
2022/04/29 08:28:08;;;;;;;17.35;3.25;;;10.50;98.60;;;;;;4989566;28;20058;-57
2022/04/29 08:30:35;;;;;;;13.57;2.42;;;10.60;98.60;;;;;;4989157;28;20509;-56
2022/04/29 08:33:02;;;;;;;8.50;2.00;;;10.80;98.20;;;;;;4988973;28;20050;-58
2022/04/29 08:35:29;;;;;;;7.20;2.20;;;11.00;98.60;;;;;;4988804;28;20551;-57
2022/04/29 08:37:56;;;;;;;6.47;2.00;;;11.10;96.40;;;;;;4981528;28;20047;-57
2022/04/29 08:40:24;;;;;;;6.57;1.92;;;11.20;97.40;;;;;;4968396;28;20046;-58
2022/04/29 08:42:51;;;;;;;5.15;2.03;;;11.30;97.30;;;;;;4987278;28;20074;-58
2022/04/29 08:45:20;;;;;;;3.92;1.70;;;11.40;97.40;;;;;;4988343;28;20129;-57
2022/04/29 08:47:47;;;;;;;5.55;2.33;;;11.40;97.20;;;;;;4988954;28;20081;-55
2022/04/29 08:50:18;;;;;;;8.65;1.95;;;11.50;96.00;;;;;;5004251;28;20141;-57
2022/04/29 08:52:45;;;;;;;5.05;1.63;;;11.50;96.40;;;;;;4988907;28;20056;-58
2022/04/29 09:00:44;;;;;;;5.75;3.40;;;11.40;95.20;;;;;;4969592;28;20050;-58
2022/04/29 09:03:16;;;;;;;13.40;2.45;;;11.50;95.90;;;;;;4985233;28;20133;-60
2022/04/29 09:05:43;;;;;;;4.30;1.77;;;11.50;95.70;;;;;;4969889;28;20454;-57
2022/04/29 09:08:20;;;;;;;12.52;3.95;;;11.50;96.10;;;;;;4983493;28;20116;-57
2022/04/29 09:10:51;;;;;;;6.30;2.00;;;11.50;95.70;;;;;;4988623;28;20537;-56
2022/04/29 09:13:25;;;;;;;13.30;1.95;;;11.60;95.80;;;;;;4988477;28;20051;-55
2022/04/29 09:16:11;;;;;;;4.00;1.60;;;11.60;95.80;;;;;;4988645;28;20097;-57
2022/04/29 09:18:46;;;;;;;4.22;2.00;;;11.50;94.30;;;;;;4987166;28;20055;-58
2022/04/29 09:21:17;;;;;;;7.68;1.90;;;11.50;94.60;;;;;;4969595;28;20094;-58
2022/04/29 09:23:49;;;;;;;5.60;1.30;;;11.50;95.10;;;;;;4983907;28;20054;-56
2022/04/29 09:26:22;;;;;;;3.83;1.42;;;11.60;95.10;;;;;;4988385;28;20046;-58
2022/04/29 09:28:50;;;;;;;3.10;1.58;;;11.50;94.20;;;;;;4988553;28;20077;-57
2022/04/29 09:31:17;;;;;;;11.80;2.03;;;11.60;95.50;;;;;;4987644;28;20084;-58
2022/04/29 09:33:55;;;;;;;6.18;1.70;;;11.60;95.00;;;;;;4986029;28;20064;-55
2022/04/29 09:36:24;;;;;;;5.05;1.30;;;11.50;93.80;;;;;;4985995;28;20082;-55
2022/04/29 09:41:54;;;;;;;9.20;1.42;;;11.40;94.50;;;;;;4987463;28;20589;-57
2022/04/29 09:44:34;;;;;;;5.68;1.23;;;11.50;92.10;;;;;;5002593;28;20096;-57
2022/04/29 09:47:20;;;;;;;4.47;1.35;;;11.40;92.80;;;;;;4968059;28;20136;-58
2022/04/29 09:49:55;;;;;;;7.95;1.48;;;11.30;92.00;;;;;;4985178;28;20446;-56
2022/04/29 09:52:23;;;;;;;4.43;1.15;;;11.30;93.20;;;;;;4988849;28;20124;-59
2022/04/29 09:54:50;;;;;;;8.63;1.40;;;11.30;94.40;;;;;;4988181;28;20282;-58
2022/04/29 09:57:23;;;;;;;7.63;1.50;;;11.30;93.70;;;;;;4988154;28;20050;-57
2022/04/29 09:59:51;;;;;;;5.53;1.50;;;11.30;94.30;;;;;;4988021;28;20497;-58
2022/04/29 10:02:22;;;;;;;2.65;1.00;;;11.40;92.40;;;;;;4988227;28;20288;-56
2022/04/29 10:04:50;;;;;;;4.70;1.20;;;11.40;93.80;;;;;;4984069;28;20049;-59
2022/04/29 10:07:22;;;;;;;7.75;1.52;;;11.40;94.10;;;;;;4988082;28;20096;-58
2022/04/29 10:09:51;;;;;;;6.07;2.00;;;11.40;92.80;;;;;;4987985;28;20066;-57
2022/04/29 10:12:25;;;;;;;3.17;1.55;;;11.50;93.90;;;;;;4987789;28;20074;-57
2022/04/29 10:14:58;;;;;;;;;;;11.50;92.90;;;;;;4988464;28;20074;-57
2022/04/29 10:23:11;;;;;;;13.05;2.10;;;11.60;92.60;;;;;;4988021;28;20134;-58
2022/04/29 10:25:42;;;;;;;16.52;1.90;;;11.50;92.30;;;;;;4987603;28;20520;-58
2022/04/29 10:28:09;;;;;;;8.65;2.17;;;11.50;93.60;;;;;;4988136;28;20046;-58
2022/04/29 10:30:40;;;;;;;8.05;1.73;;;11.50;93.70;;;;;;4987784;28;20058;-58
2022/04/29 10:33:22;;;;;;;5.63;2.13;;;11.60;93.20;;;;;;4987955;28;20525;-58
2022/04/29 10:35:50;;;;;;;9.35;1.70;;;11.60;94.00;;;;;;4987014;28;20050;-58
2022/04/29 10:38:31;;;;;;;6.13;3.10;;;11.70;94.00;;;;;;4972251;28;20521;-58
2022/04/29 10:41:06;;;;;;;7.03;2.03;;;11.70;92.80;;;;;;4979879;28;20457;-57
2022/04/29 10:43:40;;;;;;;6.78;2.35;;;11.60;91.70;;;;;;4987649;28;20050;-57
2022/04/29 10:46:07;;;;;;;4.25;1.85;;;11.50;93.00;;;;;;4998381;28;20086;-58
2022/04/29 10:48:42;;;;;;;3.50;1.80;;;11.60;93.90;;;;;;4987864;28;20105;-57
2022/04/29 10:51:09;;;;;;;5.90;1.90;;;11.60;94.00;;;;;;4987387;28;20689;-58
2022/04/29 10:53:37;;;;;;;4.32;1.83;;;11.70;93.50;;;;;;4987748;28;20109;-57
2022/04/29 10:56:26;;;;;;;6.93;1.80;;;11.70;93.20;;;;;;4989417;28;20088;-58
2022/04/29 10:59:21;;;;;;;7.50;2.95;;;11.70;91.60;;;;;;4991145;28;20426;-58
2022/04/29 11:01:49;;;;;;;4.68;1.83;;;11.70;93.40;;;;;;5002362;28;20052;-58
2022/04/29 11:04:16;;;;;;;8.32;1.90;;;11.70;92.80;;;;;;4989604;28;20055;-57
2022/04/29 11:06:46;;;;;;;5.80;1.80;;;11.60;93.20;;;;;;4990870;28;20077;-58
2022/04/29 11:09:28;;;;;;;4.38;1.63;;;11.60;92.70;;;;;;4991237;28;20054;-57
2022/04/29 11:11:55;;;;;;;5.32;1.80;;;11.60;92.10;;;;;;4990500;28;20108;-56
2022/04/29 11:14:22;;;;;;;4.18;1.67;;;11.70;93.20;;;;;;4990823;28;20090;-59
2022/04/29 11:16:56;;;;;;;5.68;1.60;;;11.70;93.10;;;;;;4990721;28;20074;-58
2022/04/29 11:19:28;;;;;;;10.32;1.98;;;11.90;92.70;;;;;;4990993;28;20054;-55
2022/04/29 11:24:49;;;;;;;5.85;2.00;;;12.20;90.90;;;;;;4990512;28;20050;-58
2022/04/29 11:27:29;;;;;;;4.35;2.17;;;12.30;92.10;;;;;;4990241;28;20046;-57
2022/04/29 11:30:02;;;;;;;3.47;1.90;;;12.50;89.50;;;;;;4990800;28;20050;-57
2022/04/29 11:32:30;;;;;;;5.93;1.80;;;12.50;91.30;;;;;;5004817;28;20449;-58
2022/04/29 11:35:06;;;;;;;6.93;2.78;;;12.50;91.20;;;;;;4990366;28;20108;-57
2022/04/29 11:37:34;;;;;;;3.03;1.30;;;12.60;91.50;;;;;;4989856;28;20078;-58
2022/04/29 11:40:05;;;;;;;2.60;1.98;;;12.60;91.50;;;;;;4990804;28;20082;-55
2022/04/29 11:42:33;;;;;;;6.88;1.77;;;12.70;88.70;;;;;;4990072;28;20133;-57
2022/04/29 11:45:09;;;;;;;3.38;2.00;;;12.80;91.00;;;;;;4989512;28;20046;-59
2022/04/29 11:47:36;;;;;;;13.55;2.53;;;12.80;90.10;;;;;;5005036;28;20046;-57
2022/04/29 11:50:07;;;;;;;7.43;2.15;;;12.90;90.10;;;;;;4990861;28;20253;-57
2022/04/29 11:52:36;;;;;;;4.13;1.92;;;12.90;90.40;;;;;;4990045;28;20421;-58
2022/04/29 11:55:14;;;;;;;8.23;1.83;;;12.90;90.20;;;;;;4990414;28;20054;-59
2022/04/29 11:57:49;;;;;;;5.53;2.03;;;12.90;89.20;;;;;;5004983;28;20471;-59
2022/04/29 12:00:26;;;;;;;5.25;1.45;;;12.90;88.50;;;;;;4980036;28;20351;-57
2022/04/29 12:02:53;;;;;;;4.90;1.55;;;12.80;87.30;;;;;;4990151;28;20053;-56
2022/04/29 12:05:24;;;;;;;5.55;2.50;;;12.80;90.70;;;;;;4979998;28;20050;-58
2022/04/29 12:07:51;;;;;;;4.93;2.67;;;12.80;88.80;;;;;;4987916;28;20101;-57
2022/04/29 12:10:22;;;;;;;4.70;2.28;;;12.80;90.20;;;;;;4989762;28;20329;-58
2022/04/29 12:12:56;;;;;;;13.30;3.22;;;12.70;89.00;;;;;;4989643;28;20104;-58
2022/04/29 12:15:28;;;;;;;;;;;12.60;90.40;;;;;;5005458;28;20167;-60
2022/04/29 12:17:58;;;;;;;14.90;2.58;;;12.60;89.00;;;;;;4989581;28;19976;-58
2022/04/29 12:20:25;;;;;;;11.55;3.22;;;12.70;90.90;;;;;;4986627;28;20039;-58
2022/04/29 12:22:52;;;;;;;18.55;2.75;;;12.70;90.50;;;;;;4990647;28;20081;-58
2022/04/29 12:25:23;;;;;;;5.82;2.13;;;12.70;90.50;;;;;;4989564;28;20580;-57
2022/04/29 12:28:09;;;;;;;7.70;2.55;;;12.70;90.30;;;;;;4990013;28;20085;-58
2022/04/29 12:36:10;;;;;;;3.92;2.30;;;12.80;91.40;;;;;;4987952;28;20042;-59
2022/04/29 12:38:38;;;;;;;6.93;2.08;;;12.80;91.20;;;;;;4989674;28;20137;-57
2022/04/29 12:41:27;;;;;;;6.68;2.25;;;12.70;90.20;;;;;;4989086;28;20042;-58
2022/04/29 12:44:05;;;;;;;9.27;3.20;;;12.70;90.20;;;;;;4989046;28;20050;-56
2022/04/29 12:46:32;;;;;;;4.32;2.15;;;12.90;91.30;;;;;;4988307;28;20082;-57
2022/04/29 12:49:05;;;;;;;6.53;2.45;;;13.00;91.70;;;;;;4988985;28;20043;-58
2022/04/29 12:51:33;;;;;;;8.23;3.17;;;13.00;91.30;;;;;;4989210;28;20092;-60
2022/04/29 12:54:02;;;;;;;6.03;2.22;;;12.90;91.20;;;;;;5004106;28;20126;-57
2022/04/29 12:56:30;;;;;;;5.00;2.75;;;12.90;90.80;;;;;;4981321;28;20514;-58
2022/04/29 12:58:58;;;;;;;7.10;2.85;;;12.90;91.20;;;;;;4968329;28;20090;-59
2022/04/29 13:01:25;;;;;;;7.32;2.45;;;13.00;91.60;;;;;;4987629;28;20141;-57
2022/04/29 13:03:52;;;;;;;7.68;3.13;;;13.00;91.30;;;;;;4981857;28;20129;-56
2022/04/29 13:06:20;;;;;;;7.43;2.72;;;13.00;91.20;;;;;;4982335;28;20089;-58
2022/04/29 13:08:51;;;;;;;9.73;2.33;;;13.00;91.10;;;;;;4973959;28;20040;-58
2022/04/29 13:11:18;;;;;;;5.43;2.63;;;13.00;90.20;;;;;;4988102;28;20519;-57
2022/04/29 13:13:45;;;;;;;6.00;3.47;;;12.80;90.80;;;;;;5003697;28;20528;-57
2022/04/29 13:16:11;;;;;;;7.43;2.28;;;12.70;91.40;;;;;;4979772;28;20474;-59
2022/04/29 13:18:38;;;;;;;8.93;3.22;;;12.70;91.50;;;;;;4985131;28;20065;-57
2022/04/29 13:21:09;;;;;;;6.32;2.70;;;12.70;91.50;;;;;;4988411;28;20082;-58
2022/04/29 13:23:36;;;;;;;8.00;2.58;;;12.70;91.70;;;;;;4988510;28;20057;-59
2022/04/29 13:26:03;;;;;;;7.60;2.65;;;12.70;91.70;;;;;;4988435;28;20122;-58
2022/04/29 13:28:31;;;;;;;7.25;2.78;;;12.70;91.90;;;;;;4988395;28;20047;-59
2022/04/29 13:30:59;;;;;;;8.02;3.28;;;12.80;91.60;;;;;;4986951;28;20084;-57
2022/04/29 13:33:26;;;;;;;4.40;2.38;;;12.70;91.60;;;;;;4985666;28;20078;-58